createdAt,value
2023-10-17T00:00:05.850Z,9.747379
2023-10-17T00:01:05.792Z,9.747361
2023-10-17T00:02:05.781Z,9.747351
2023-10-17T00:03:05.825Z,9.747540
2023-10-17T00:04:05.921Z,9.747429
2023-10-17T00:05:05.822Z,9.747560
2023-10-17T00:06:05.732Z,9.747652
2023-10-17T00:07:05.738Z,9.747566
2023-10-17T00:08:05.708Z,9.747460
2023-10-17T00:09:05.762Z,9.747582
2023-10-17T00:10:05.696Z,9.747448
2023-10-17T00:11:05.684Z,9.747439
2023-10-17T00:12:05.719Z,9.747306
2023-10-17T00:13:05.680Z,9.747278
2023-10-17T00:14:05.682Z,9.747355
2023-10-17T00:15:05.700Z,9.747361
2023-10-17T00:16:05.639Z,9.747374
2023-10-17T00:17:05.672Z,9.747306
2023-10-17T00:18:05.707Z,9.747239
2023-10-17T00:19:05.650Z,9.747213
2023-10-17T00:20:05.674Z,9.747308
2023-10-17T00:21:05.625Z,9.747363
2023-10-17T00:22:05.595Z,9.747432
2023-10-17T00:23:05.611Z,9.747343
2023-10-17T00:24:05.651Z,9.747478
2023-10-17T00:25:05.561Z,9.747504
2023-10-17T00:26:05.561Z,9.747376
2023-10-17T00:27:05.574Z,9.747456
2023-10-17T00:28:05.569Z,9.747408
2023-10-17T00:29:05.541Z,9.747438
2023-10-17T00:30:05.554Z,9.747466
2023-10-17T00:31:05.575Z,9.747422
2023-10-17T00:32:05.522Z,9.747281
2023-10-17T00:33:05.651Z,9.747373
2023-10-17T00:34:05.502Z,9.747285
2023-10-17T00:35:05.499Z,9.747368
2023-10-17T00:36:05.510Z,9.747404
2023-10-17T00:37:05.504Z,9.747312
2023-10-17T00:38:05.499Z,9.747315
2023-10-17T00:39:05.511Z,9.747332
2023-10-17T00:40:05.458Z,9.747350
2023-10-17T00:41:05.451Z,9.747339
2023-10-17T00:42:05.494Z,9.747337
2023-10-17T00:43:05.429Z,9.747351
2023-10-17T00:44:05.422Z,9.747313
2023-10-17T00:45:05.445Z,9.747353
2023-10-17T00:46:05.469Z,9.747358
2023-10-17T00:47:05.496Z,9.747342
2023-10-17T00:48:05.484Z,9.747315
2023-10-17T00:49:05.395Z,9.747354
2023-10-17T00:50:05.374Z,9.747377
2023-10-17T00:51:05.422Z,9.747336
2023-10-17T00:52:05.396Z,9.747342
2023-10-17T00:53:05.359Z,9.747334
2023-10-17T00:54:05.376Z,9.747380
2023-10-17T00:55:06.229Z,9.747328
2023-10-17T00:56:05.362Z,9.747273
2023-10-17T00:57:05.347Z,9.747328
2023-10-17T00:58:05.323Z,9.747287
2023-10-17T00:59:05.322Z,9.747357
2023-10-17T01:00:05.330Z,9.747399
2023-10-17T01:01:05.381Z,9.747380
2023-10-17T01:02:05.322Z,9.747395
2023-10-17T01:03:05.356Z,9.747408
2023-10-17T01:04:05.281Z,9.747340
2023-10-17T01:05:05.273Z,9.747347
2023-10-17T01:06:05.368Z,9.747287
2023-10-17T01:07:05.336Z,9.747321
2023-10-17T01:08:05.249Z,9.747395
2023-10-17T01:09:05.248Z,9.747607
2023-10-17T01:10:05.264Z,9.747366
2023-10-17T01:11:05.248Z,9.747402
2023-10-17T01:12:05.236Z,9.747311
2023-10-17T01:13:05.207Z,9.747320
2023-10-17T01:14:05.201Z,9.747513
2023-10-17T01:15:05.234Z,9.747426
2023-10-17T01:16:05.193Z,9.747388
2023-10-17T01:17:05.185Z,9.747393
2023-10-17T01:18:05.239Z,9.747398
2023-10-17T01:19:05.155Z,9.747336
2023-10-17T01:20:05.184Z,9.747353
2023-10-17T01:21:05.200Z,9.747313
2023-10-17T01:22:05.142Z,9.747369
2023-10-17T01:23:05.140Z,9.747267
2023-10-17T01:24:05.255Z,9.747357
2023-10-17T01:25:05.158Z,9.747429
2023-10-17T01:26:05.114Z,9.747247
2023-10-17T01:27:05.136Z,9.747190
2023-10-17T01:28:05.100Z,9.747348
2023-10-17T01:29:05.126Z,9.747251
2023-10-17T01:30:05.111Z,9.747259
2023-10-17T01:31:05.128Z,9.747284
2023-10-17T01:32:06.083Z,9.747289
2023-10-17T01:33:05.119Z,9.747313
2023-10-17T01:34:05.074Z,9.747332
2023-10-17T01:35:05.049Z,9.747223
2023-10-17T01:36:05.049Z,9.747274
2023-10-17T01:37:05.028Z,9.747279
2023-10-17T01:38:05.041Z,9.747143
2023-10-17T01:39:05.047Z,9.747216
2023-10-17T01:40:05.006Z,9.747320
2023-10-17T01:41:05.027Z,9.747270
2023-10-17T01:42:05.017Z,9.747319
2023-10-17T01:43:05.032Z,9.747393
2023-10-17T01:44:04.981Z,9.747348
2023-10-17T01:45:04.991Z,9.747362
2023-10-17T01:46:05.003Z,9.747366
2023-10-17T01:47:04.952Z,9.747346
2023-10-17T01:48:05.010Z,9.747371
2023-10-17T01:49:04.944Z,9.747303
2023-10-17T01:50:04.920Z,9.747314
2023-10-17T01:51:04.941Z,9.747313
2023-10-17T01:52:04.941Z,9.747417
2023-10-17T01:53:04.934Z,9.747303
2023-10-17T01:54:04.949Z,9.747271
2023-10-17T01:55:04.892Z,9.747313
2023-10-17T01:56:04.878Z,9.747207
2023-10-17T01:57:04.996Z,9.747348
2023-10-17T01:58:04.862Z,9.747171
2023-10-17T01:59:04.853Z,9.747202
2023-10-17T02:00:04.908Z,9.747400
2023-10-17T02:01:04.842Z,9.747360
2023-10-17T02:02:04.869Z,9.747514
2023-10-17T02:03:05.026Z,9.747385
2023-10-17T02:04:04.827Z,9.747361
2023-10-17T02:05:04.864Z,9.747381
2023-10-17T02:06:04.840Z,9.747279
2023-10-17T02:07:04.818Z,9.747378
2023-10-17T02:08:04.796Z,9.747345
2023-10-17T02:09:04.846Z,9.747287
2023-10-17T02:10:04.773Z,9.747344
2023-10-17T02:11:04.799Z,9.747403
2023-10-17T02:12:05.451Z,9.747363
2023-10-17T02:13:04.754Z,9.747337
2023-10-17T02:14:04.737Z,9.747334
2023-10-17T02:15:04.765Z,9.747330
2023-10-17T02:16:04.821Z,9.747317
2023-10-17T02:17:04.741Z,9.747189
2023-10-17T02:18:04.815Z,9.747189
2023-10-17T02:19:04.704Z,9.747279
2023-10-17T02:20:04.717Z,9.747251
2023-10-17T02:21:04.747Z,9.747261
2023-10-17T02:22:04.666Z,9.747370
2023-10-17T02:23:05.670Z,9.747265
2023-10-17T02:24:04.691Z,9.747252
2023-10-17T02:25:04.696Z,9.747337
2023-10-17T02:26:04.652Z,9.747449
2023-10-17T02:27:04.675Z,9.747452
2023-10-17T02:28:04.635Z,9.747277
2023-10-17T02:29:04.644Z,9.747350
2023-10-17T02:30:04.669Z,9.747499
2023-10-17T02:31:04.613Z,9.747466
2023-10-17T02:32:04.597Z,9.747439
2023-10-17T02:33:04.657Z,9.747438
2023-10-17T02:34:04.639Z,9.747287
2023-10-17T02:35:04.613Z,9.747355
2023-10-17T02:36:04.608Z,9.747431
2023-10-17T02:37:04.571Z,9.747392
2023-10-17T02:38:04.571Z,9.747321
2023-10-17T02:39:04.605Z,9.747253
2023-10-17T02:40:04.546Z,9.747320
2023-10-17T02:41:04.546Z,9.747332
2023-10-17T02:42:04.547Z,9.747388
2023-10-17T02:43:04.537Z,9.747377
2023-10-17T02:44:04.531Z,9.747367
2023-10-17T02:45:04.566Z,9.747314
2023-10-17T02:46:04.542Z,9.747356
2023-10-17T02:47:04.492Z,9.747393
2023-10-17T02:48:04.556Z,9.747392
2023-10-17T02:49:04.505Z,9.747316
2023-10-17T02:50:04.470Z,9.747348
2023-10-17T02:51:04.536Z,9.747440
2023-10-17T02:52:04.457Z,9.747338
2023-10-17T02:53:04.473Z,9.747359
2023-10-17T02:54:04.458Z,9.747385
2023-10-17T02:55:04.438Z,9.747413
2023-10-17T02:56:04.422Z,9.747348
2023-10-17T02:57:04.454Z,9.747385
2023-10-17T02:58:04.456Z,9.747400
2023-10-17T02:59:04.405Z,9.747435
2023-10-17T03:00:04.467Z,9.747408
2023-10-17T03:01:04.402Z,9.747413
2023-10-17T03:02:04.409Z,9.747370
2023-10-17T03:03:04.462Z,9.747371
2023-10-17T03:04:04.443Z,9.747407
2023-10-17T03:05:04.360Z,9.747372
2023-10-17T03:06:04.360Z,9.747390
2023-10-17T03:07:04.368Z,9.747355
2023-10-17T03:08:04.360Z,9.747311
2023-10-17T03:09:04.335Z,9.747377
2023-10-17T03:10:04.322Z,9.747375
2023-10-17T03:11:04.303Z,9.747455
2023-10-17T03:12:04.372Z,9.747427
2023-10-17T03:13:04.302Z,9.747380
2023-10-17T03:14:05.320Z,9.747401
2023-10-17T03:15:04.288Z,9.747305
2023-10-17T03:16:04.337Z,9.747354
2023-10-17T03:17:04.287Z,9.747399
2023-10-17T03:18:04.317Z,9.747370
2023-10-17T03:19:04.244Z,9.747416
2023-10-17T03:20:04.240Z,9.747510
2023-10-17T03:21:04.317Z,9.747489
2023-10-17T03:22:04.228Z,9.747508
2023-10-17T03:23:04.220Z,9.747407
2023-10-17T03:24:04.245Z,9.747406
2023-10-17T03:25:04.207Z,9.747445
2023-10-17T03:26:04.360Z,9.747429
2023-10-17T03:27:04.200Z,9.747287
2023-10-17T03:28:04.177Z,9.747350
2023-10-17T03:29:04.168Z,9.747342
2023-10-17T03:30:04.846Z,9.747374
2023-10-17T03:31:04.203Z,9.747250
2023-10-17T03:32:04.156Z,9.747364
2023-10-17T03:33:04.228Z,9.747379
2023-10-17T03:34:04.133Z,9.747381
2023-10-17T03:35:04.279Z,9.747335
2023-10-17T03:36:04.197Z,9.747334
2023-10-17T03:37:04.109Z,9.747334
2023-10-17T03:38:04.114Z,9.747307
2023-10-17T03:39:04.127Z,9.747335
2023-10-17T03:40:04.118Z,9.747398
2023-10-17T03:41:04.078Z,9.747376
2023-10-17T03:42:04.079Z,9.747422
2023-10-17T03:43:04.061Z,9.747410
2023-10-17T03:44:04.076Z,9.747397
2023-10-17T03:45:04.124Z,9.747459
2023-10-17T03:46:04.074Z,9.747365
2023-10-17T03:47:04.042Z,9.747357
2023-10-17T03:48:04.070Z,9.747417
2023-10-17T03:49:04.069Z,9.747458
2023-10-17T03:50:04.016Z,9.747323
2023-10-17T03:51:04.029Z,9.747338
2023-10-17T03:52:04.078Z,9.747501
2023-10-17T03:53:04.023Z,9.747406
2023-10-17T03:54:04.052Z,9.747388
2023-10-17T03:55:03.969Z,9.747355
2023-10-17T03:56:03.960Z,9.747541
2023-10-17T03:57:04.136Z,9.747469
2023-10-17T03:58:03.952Z,9.747337
2023-10-17T03:59:03.966Z,9.747286
2023-10-17T04:00:03.966Z,9.747114
2023-10-17T04:01:04.047Z,9.747326
2023-10-17T04:02:03.987Z,9.747246
2023-10-17T04:03:03.975Z,9.747278
2023-10-17T04:04:13.486Z,9.747371
2023-10-17T04:05:05.992Z,9.747425
2023-10-17T04:06:03.921Z,9.747412
2023-10-17T04:07:03.876Z,9.747499
2023-10-17T04:08:03.900Z,9.747416
2023-10-17T04:09:03.872Z,9.747469
2023-10-17T04:10:03.864Z,9.747495
2023-10-17T04:11:03.851Z,9.747359
2023-10-17T04:12:03.847Z,9.747280
2023-10-17T04:13:03.846Z,9.747450
2023-10-17T04:14:04.827Z,9.747440
2023-10-17T04:15:03.852Z,9.747485
2023-10-17T04:16:03.816Z,9.747458
2023-10-17T04:17:03.835Z,9.747472
2023-10-17T04:18:03.914Z,9.747447
2023-10-17T04:19:03.889Z,9.747479
2023-10-17T04:20:03.776Z,9.747509
2023-10-17T04:21:03.792Z,9.747495
2023-10-17T04:22:18.350Z,9.747542
2023-10-17T04:23:05.751Z,9.747398
2023-10-17T04:24:03.768Z,9.747428
2023-10-17T04:25:03.756Z,9.747370
2023-10-17T04:26:03.735Z,9.747364
2023-10-17T04:27:03.764Z,9.747400
2023-10-17T04:28:03.715Z,9.747472
2023-10-17T04:29:03.710Z,9.747414
2023-10-17T04:30:03.735Z,9.747223
2023-10-17T04:31:03.751Z,9.747277
2023-10-17T04:32:03.710Z,9.747317
2023-10-17T04:33:03.747Z,9.747440
2023-10-17T04:34:03.670Z,9.747616
2023-10-17T04:35:03.802Z,9.747633
2023-10-17T04:36:03.733Z,9.747530
2023-10-17T04:37:03.656Z,9.747381
2023-10-17T04:38:03.646Z,9.747492
2023-10-17T04:39:03.651Z,9.747421
2023-10-17T04:40:03.631Z,9.747410
2023-10-17T04:41:03.668Z,9.747451
2023-10-17T04:42:03.642Z,9.747429
2023-10-17T04:43:03.656Z,9.747366
2023-10-17T04:44:03.624Z,9.747272
2023-10-17T04:45:03.684Z,9.747416
2023-10-17T04:46:03.626Z,9.747353
2023-10-17T04:47:05.278Z,9.747475
2023-10-17T04:48:03.673Z,9.747507
2023-10-17T04:49:03.565Z,9.747345
2023-10-17T04:50:03.617Z,9.747340
2023-10-17T04:51:03.560Z,9.747366
2023-10-17T04:52:36.383Z,9.747432
2023-10-17T04:53:03.547Z,9.747357
2023-10-17T04:54:03.559Z,9.747437
2023-10-17T04:55:03.559Z,9.747372
2023-10-17T04:56:03.519Z,9.747488
2023-10-17T04:57:03.599Z,9.747478
2023-10-17T04:58:03.497Z,9.747438
2023-10-17T04:59:03.590Z,9.747400
2023-10-17T05:00:03.541Z,9.747488
2023-10-17T05:01:03.622Z,9.747444
2023-10-17T05:02:03.563Z,9.747422
2023-10-17T05:03:03.583Z,9.747370
2023-10-17T05:04:03.571Z,9.747404
2023-10-17T05:05:03.445Z,9.747371
2023-10-17T05:06:03.512Z,9.747396
2023-10-17T05:07:03.511Z,9.747417
2023-10-17T05:08:03.435Z,9.747390
2023-10-17T05:09:03.456Z,9.747401
2023-10-17T05:10:03.425Z,9.747388
2023-10-17T05:11:03.404Z,9.747386
2023-10-17T05:12:03.449Z,9.747400
2023-10-17T05:13:03.425Z,9.747466
2023-10-17T05:14:03.419Z,9.747413
2023-10-17T05:15:03.469Z,9.747459
2023-10-17T05:16:03.367Z,9.747424
2023-10-17T05:17:03.368Z,9.747455
2023-10-17T05:18:03.549Z,9.747258
2023-10-17T05:19:03.408Z,9.747310
2023-10-17T05:20:03.333Z,9.747333
2023-10-17T05:21:03.414Z,9.747339
2023-10-17T05:22:03.319Z,9.747418
2023-10-17T05:23:03.340Z,9.747371
2023-10-17T05:24:03.334Z,9.747368
2023-10-17T05:25:03.301Z,9.747309
2023-10-17T05:26:03.298Z,9.747329
2023-10-17T05:27:03.344Z,9.747321
2023-10-17T05:28:03.297Z,9.747304
2023-10-17T05:29:12.033Z,9.747307
2023-10-17T05:30:05.278Z,9.747317
2023-10-17T05:31:03.308Z,9.747296
2023-10-17T05:32:03.277Z,9.747368
2023-10-17T05:33:03.379Z,9.747340
2023-10-17T05:34:03.255Z,9.747351
2023-10-17T05:35:04.083Z,9.747390
2023-10-17T05:36:04.281Z,9.747474
2023-10-17T05:37:03.231Z,9.747393
2023-10-17T05:38:03.204Z,9.747552
2023-10-17T05:39:03.235Z,9.747399
2023-10-17T05:40:03.181Z,9.747398
2023-10-17T05:41:03.211Z,9.747396
2023-10-17T05:42:03.224Z,9.747373
2023-10-17T05:43:03.159Z,9.747334
2023-10-17T05:44:03.157Z,9.747323
2023-10-17T05:45:03.167Z,9.747350
2023-10-17T05:46:03.208Z,9.747384
2023-10-17T05:47:03.164Z,9.747355
2023-10-17T05:48:03.178Z,9.747387
2023-10-17T05:49:03.119Z,9.747433
2023-10-17T05:50:03.113Z,9.747421
2023-10-17T05:51:03.152Z,9.747469
2023-10-17T05:52:03.105Z,9.747316
2023-10-17T05:53:03.099Z,9.747319
2023-10-17T05:54:06.336Z,9.747428
2023-10-17T05:55:25.253Z,9.747445
2023-10-17T05:56:05.162Z,9.747485
2023-10-17T05:57:03.097Z,9.747400
2023-10-17T05:58:03.073Z,9.747403
2023-10-17T05:59:03.051Z,9.747422
2023-10-17T06:00:03.274Z,9.747368
2023-10-17T06:01:03.086Z,9.747415
2023-10-17T06:02:03.042Z,9.747327
2023-10-17T06:03:03.072Z,9.747376
2023-10-17T06:04:03.155Z,9.747307
2023-10-17T06:05:03.091Z,9.747339
2023-10-17T06:06:03.781Z,9.747395
2023-10-17T06:07:03.522Z,9.747426
2023-10-17T06:08:04.005Z,9.747422
2023-10-17T06:09:03.026Z,9.747458
2023-10-17T06:10:03.098Z,9.747370
2023-10-17T06:11:02.965Z,9.747357
2023-10-17T06:12:03.007Z,9.747350
2023-10-17T06:13:02.957Z,9.747409
2023-10-17T06:14:02.968Z,9.747478
2023-10-17T06:15:03.007Z,9.747435
2023-10-17T06:16:02.950Z,9.747375
2023-10-17T06:17:02.919Z,9.747364
2023-10-17T06:18:03.026Z,9.747250
2023-10-17T06:19:02.930Z,9.747250
2023-10-17T06:20:02.916Z,9.747392
2023-10-17T06:21:02.953Z,9.747482
2023-10-17T06:22:03.008Z,9.747636
2023-10-17T06:23:02.877Z,9.747475
2023-10-17T06:24:02.928Z,9.747339
2023-10-17T06:25:02.877Z,9.747549
2023-10-17T06:26:02.854Z,9.747454
2023-10-17T06:27:02.904Z,9.747396
2023-10-17T06:28:02.873Z,9.747385
2023-10-17T06:29:02.861Z,9.747350
2023-10-17T06:30:02.898Z,9.747372
2023-10-17T06:31:02.868Z,9.747263
2023-10-17T06:32:02.809Z,9.747397
2023-10-17T06:33:02.931Z,9.747405
2023-10-17T06:34:02.806Z,9.747458
2023-10-17T06:35:02.811Z,9.747388
2023-10-17T06:36:02.806Z,9.747414
2023-10-17T06:37:02.774Z,9.747239
2023-10-17T06:38:02.814Z,9.747337
2023-10-17T06:39:02.770Z,9.747449
2023-10-17T06:40:02.749Z,9.747423
2023-10-17T06:41:02.748Z,9.747267
2023-10-17T06:42:02.746Z,9.747266
2023-10-17T06:43:03.059Z,9.747303
2023-10-17T06:44:02.725Z,9.747381
2023-10-17T06:45:04.190Z,9.747354
2023-10-17T06:46:03.809Z,9.747458
2023-10-17T06:47:02.737Z,9.747400
2023-10-17T06:48:02.751Z,9.747292
2023-10-17T06:49:02.689Z,9.747380
2023-10-17T06:50:02.696Z,9.747533
2023-10-17T06:51:02.671Z,9.747401
2023-10-17T06:52:02.715Z,9.747360
2023-10-17T06:53:02.715Z,9.747407
2023-10-17T06:54:02.651Z,9.747156
2023-10-17T06:55:02.645Z,9.747249
2023-10-17T06:56:02.653Z,9.747457
2023-10-17T06:57:02.653Z,9.747323
2023-10-17T06:58:02.739Z,9.747173
2023-10-17T06:59:02.618Z,9.747330
2023-10-17T07:00:02.598Z,9.747309
2023-10-17T07:01:02.710Z,9.747502
2023-10-17T07:02:02.625Z,9.747354
2023-10-17T07:03:02.682Z,9.747363
2023-10-17T07:04:02.650Z,9.747252
2023-10-17T07:05:02.585Z,9.747259
2023-10-17T07:06:02.613Z,9.747256
2023-10-17T07:07:02.558Z,9.747322
2023-10-17T07:08:02.549Z,9.747360
2023-10-17T07:09:02.542Z,9.747302
2023-10-17T07:10:02.531Z,9.747343
2023-10-17T07:11:02.548Z,9.747046
2023-10-17T07:12:02.521Z,9.747366
2023-10-17T07:13:02.503Z,9.747375
2023-10-17T07:14:02.500Z,9.747585
2023-10-17T07:15:02.536Z,9.747394
2023-10-17T07:16:02.553Z,9.747325
2023-10-17T07:17:02.479Z,9.747404
2023-10-17T07:18:02.493Z,9.747241
2023-10-17T07:19:02.553Z,9.747343
2023-10-17T07:20:02.578Z,9.747403
2023-10-17T07:21:02.449Z,9.747425
2023-10-17T07:22:02.676Z,9.747472
2023-10-17T07:23:02.435Z,9.747405
2023-10-17T07:24:02.445Z,9.747418
2023-10-17T07:25:02.459Z,9.747363
2023-10-17T07:26:02.987Z,9.747503
2023-10-17T07:27:02.416Z,9.747399
2023-10-17T07:28:02.396Z,9.747480
2023-10-17T07:29:02.417Z,9.747459
2023-10-17T07:30:02.429Z,9.747378
2023-10-17T07:31:02.472Z,9.747383
2023-10-17T07:32:02.385Z,9.747425
2023-10-17T07:33:02.376Z,9.747466
2023-10-17T07:34:02.368Z,9.747479
2023-10-17T07:35:02.353Z,9.747503
2023-10-17T07:36:04.088Z,9.747411
2023-10-17T07:37:02.321Z,9.747335
2023-10-17T07:38:02.310Z,9.747328
2023-10-17T07:39:02.326Z,9.747219
2023-10-17T07:40:02.292Z,9.747268
2023-10-17T07:41:02.279Z,9.747403
2023-10-17T07:42:02.273Z,9.747396
2023-10-17T07:43:02.277Z,9.747458
2023-10-17T07:44:02.288Z,9.747499
2023-10-17T07:45:02.266Z,9.747424
2023-10-17T07:46:02.261Z,9.747427
2023-10-17T07:47:02.235Z,9.747421
2023-10-17T07:48:05.021Z,9.747473
2023-10-17T07:49:03.244Z,9.747543
2023-10-17T07:50:02.219Z,9.747524
2023-10-17T07:51:02.209Z,9.747538
2023-10-17T07:52:02.209Z,9.747653
2023-10-17T07:53:02.228Z,9.747701
2023-10-17T07:54:02.174Z,9.747579
2023-10-17T07:55:02.186Z,9.747501
2023-10-17T07:56:02.168Z,9.747547
2023-10-17T07:57:02.158Z,9.747497
2023-10-17T07:58:02.173Z,9.747524
2023-10-17T07:59:02.134Z,9.747449
2023-10-17T08:00:02.142Z,9.747428
2023-10-17T08:01:02.236Z,9.747546
2023-10-17T08:02:02.145Z,9.747525
2023-10-17T08:03:02.238Z,9.747456
2023-10-17T08:04:02.241Z,9.747586
2023-10-17T08:05:02.090Z,9.747545
2023-10-17T08:06:02.092Z,9.747477
2023-10-17T08:07:02.106Z,9.747448
2023-10-17T08:08:02.069Z,9.747428
2023-10-17T08:09:02.061Z,9.747438
2023-10-17T08:10:02.074Z,9.747445
2023-10-17T08:11:02.053Z,9.747502
2023-10-17T08:12:02.073Z,9.747480
2023-10-17T08:13:02.038Z,9.747542
2023-10-17T08:14:04.412Z,9.747622
2023-10-17T08:15:02.013Z,9.747667
2023-10-17T08:16:02.032Z,9.747584
2023-10-17T08:17:02.092Z,9.747604
2023-10-17T08:18:02.054Z,9.747631
2023-10-17T08:19:02.081Z,9.747560
2023-10-17T08:20:02.031Z,9.747504
2023-10-17T08:21:01.996Z,9.747480
2023-10-17T08:22:01.969Z,9.747443
2023-10-17T08:23:01.956Z,9.747380
2023-10-17T08:24:01.955Z,9.747361
2023-10-17T08:25:01.940Z,9.747341
2023-10-17T08:26:02.010Z,9.747355
2023-10-17T08:27:01.934Z,9.747398
2023-10-17T08:28:02.110Z,9.747425
2023-10-17T08:29:01.916Z,9.747413
2023-10-17T08:30:01.980Z,9.747399
2023-10-17T08:31:01.973Z,9.747535
2023-10-17T08:32:01.903Z,9.747474
2023-10-17T08:33:01.911Z,9.747472
2023-10-17T08:34:01.864Z,9.747431
2023-10-17T08:35:01.923Z,9.747478
2023-10-17T08:36:01.857Z,9.747480
2023-10-17T08:37:01.847Z,9.747493
2023-10-17T08:38:01.847Z,9.747490
2023-10-17T08:39:01.835Z,9.747457
2023-10-17T08:40:01.862Z,9.747451
2023-10-17T08:41:01.826Z,9.747474
2023-10-17T08:42:01.823Z,9.747458
2023-10-17T08:43:01.806Z,9.747480
2023-10-17T08:44:01.797Z,9.747523
2023-10-17T08:45:01.839Z,9.747466
2023-10-17T08:46:01.782Z,9.747531
2023-10-17T08:47:01.773Z,9.747453
2023-10-17T08:48:01.920Z,9.747432
2023-10-17T08:49:01.799Z,9.747503
2023-10-17T08:50:01.807Z,9.747381
2023-10-17T08:51:04.589Z,9.747301
2023-10-17T08:52:01.843Z,9.747392
2023-10-17T08:53:01.738Z,9.747595
2023-10-17T08:54:01.742Z,9.747452
2023-10-17T08:55:01.718Z,9.747482
2023-10-17T08:56:01.800Z,9.747451
2023-10-17T08:57:01.702Z,9.747482
2023-10-17T08:58:01.688Z,9.747605
2023-10-17T08:59:01.727Z,9.747545
2023-10-17T09:00:01.668Z,9.747621
2023-10-17T09:01:01.800Z,9.747515
2023-10-17T09:02:01.664Z,9.747260
2023-10-17T09:03:01.813Z,9.747401
2023-10-17T09:04:01.668Z,9.747490
2023-10-17T09:05:01.757Z,9.747408
2023-10-17T09:06:01.620Z,9.747374
2023-10-17T09:07:01.609Z,9.747399
2023-10-17T09:08:01.629Z,9.747362
2023-10-17T09:09:01.614Z,9.747464
2023-10-17T09:10:01.597Z,9.747590
2023-10-17T09:11:01.595Z,9.747494
2023-10-17T09:12:01.621Z,9.747554
2023-10-17T09:13:01.600Z,9.747481
2023-10-17T09:14:01.561Z,9.747293
2023-10-17T09:15:01.571Z,9.747371
2023-10-17T09:16:01.551Z,9.747280
2023-10-17T09:17:01.580Z,9.747338
2023-10-17T09:18:01.588Z,9.747467
2023-10-17T09:19:02.523Z,9.747164
2023-10-17T09:20:01.533Z,9.747145
2023-10-17T09:21:01.505Z,9.747113
2023-10-17T09:22:01.560Z,9.747056
2023-10-17T09:23:02.500Z,9.747157
2023-10-17T09:24:01.474Z,9.747130
2023-10-17T09:25:01.484Z,9.746843
2023-10-17T09:26:01.465Z,9.746915
2023-10-17T09:27:01.486Z,9.747213
2023-10-17T09:28:01.447Z,9.747348
2023-10-17T09:29:01.454Z,9.747376
2023-10-17T09:30:01.431Z,9.747403
2023-10-17T09:31:01.484Z,9.747246
2023-10-17T09:32:01.454Z,9.747265
2023-10-17T09:33:01.429Z,9.747292
2023-10-17T09:34:01.405Z,9.747493
2023-10-17T09:35:01.389Z,9.747193
2023-10-17T09:36:01.450Z,9.747220
2023-10-17T09:37:01.930Z,9.747249
2023-10-17T09:38:01.368Z,9.747340
2023-10-17T09:39:01.364Z,9.747432
2023-10-17T09:40:01.427Z,9.747215
2023-10-17T09:41:12.450Z,9.747235
2023-10-17T09:42:03.354Z,9.747293
2023-10-17T09:43:01.332Z,9.747053
2023-10-17T09:44:01.327Z,9.747018
2023-10-17T09:45:01.385Z,9.747198
2023-10-17T09:46:01.432Z,9.747353
2023-10-17T09:47:01.438Z,9.747301
2023-10-17T09:48:01.510Z,9.747234
2023-10-17T09:49:01.669Z,9.747267
2023-10-17T09:50:01.611Z,9.747312
2023-10-17T09:51:01.297Z,9.747338
2023-10-17T09:52:01.319Z,9.747417
2023-10-17T09:53:01.257Z,9.747368
2023-10-17T09:54:01.256Z,9.747364
2023-10-17T09:55:01.263Z,9.747380
2023-10-17T09:56:01.230Z,9.747410
2023-10-17T09:57:01.232Z,9.747425
2023-10-17T09:58:01.221Z,9.747322
2023-10-17T09:59:01.209Z,9.747284
2023-10-17T10:00:01.224Z,9.747331
2023-10-17T10:01:01.187Z,9.747328
2023-10-17T10:02:01.196Z,9.747362
2023-10-17T10:03:14.469Z,9.747376
2023-10-17T10:04:03.434Z,9.747328
2023-10-17T10:05:01.255Z,9.747355
2023-10-17T10:06:02.168Z,9.747374
2023-10-17T10:07:01.171Z,9.747380
2023-10-17T10:08:01.143Z,9.747339
2023-10-17T10:09:01.186Z,9.747383
2023-10-17T10:10:01.123Z,9.747524
2023-10-17T10:11:01.120Z,9.747310
2023-10-17T10:12:01.102Z,9.747414
2023-10-17T10:13:01.097Z,9.747381
2023-10-17T10:14:01.117Z,9.747408
2023-10-17T10:15:01.074Z,9.747444
2023-10-17T10:16:01.128Z,9.747503
2023-10-17T10:17:01.087Z,9.747506
2023-10-17T10:18:01.070Z,9.747591
2023-10-17T10:19:01.084Z,9.747505
2023-10-17T10:20:01.045Z,9.747355
2023-10-17T10:21:01.027Z,9.747371
2023-10-17T10:22:02.017Z,9.747549
2023-10-17T10:23:01.037Z,9.747455
2023-10-17T10:24:01.035Z,9.747460
2023-10-17T10:25:01.012Z,9.747504
2023-10-17T10:26:00.993Z,9.747473
2023-10-17T10:27:00.989Z,9.747458
2023-10-17T10:28:01.006Z,9.747424
2023-10-17T10:29:00.981Z,9.747535
2023-10-17T10:30:00.964Z,9.747551
2023-10-17T10:31:00.963Z,9.747467
2023-10-17T10:32:01.010Z,9.747567
2023-10-17T10:33:01.021Z,9.747472
2023-10-17T10:34:00.939Z,9.747302
2023-10-17T10:35:00.988Z,9.747458
2023-10-17T10:36:00.930Z,9.747439
2023-10-17T10:37:00.950Z,9.747431
2023-10-17T10:38:00.938Z,9.747417
2023-10-17T10:39:00.914Z,9.747497
2023-10-17T10:40:00.906Z,9.747373
2023-10-17T10:41:00.890Z,9.747396
2023-10-17T10:42:00.913Z,9.747421
2023-10-17T10:43:00.929Z,9.747541
2023-10-17T10:44:00.861Z,9.747494
2023-10-17T10:45:00.859Z,9.747463
2023-10-17T10:46:00.924Z,9.747370
2023-10-17T10:47:00.898Z,9.747352
2023-10-17T10:48:00.923Z,9.747519
2023-10-17T10:49:00.871Z,9.747507
2023-10-17T10:50:00.810Z,9.747471
2023-10-17T10:51:00.830Z,9.747499
2023-10-17T10:52:26.750Z,9.747443
2023-10-17T10:53:00.785Z,9.747422
2023-10-17T10:54:01.776Z,9.747436
2023-10-17T10:55:00.793Z,9.747499
2023-10-17T10:56:00.946Z,9.747479
2023-10-17T10:57:00.759Z,9.747456
2023-10-17T10:58:00.750Z,9.747459
2023-10-17T10:59:00.765Z,9.747481
2023-10-17T11:00:00.755Z,9.747583
2023-10-17T11:01:00.781Z,9.747471
2023-10-17T11:02:00.737Z,9.747531
2023-10-17T11:03:00.748Z,9.747376
2023-10-17T11:04:00.785Z,9.747431
2023-10-17T11:05:00.743Z,9.747437
2023-10-17T11:06:00.729Z,9.747377
2023-10-17T11:07:00.682Z,9.747397
2023-10-17T11:08:00.672Z,9.747422
2023-10-17T11:09:00.677Z,9.747470
2023-10-17T11:10:00.695Z,9.747412
2023-10-17T11:11:00.698Z,9.747361
2023-10-17T11:12:00.648Z,9.747336
2023-10-17T11:13:00.657Z,9.747356
2023-10-17T11:14:01.597Z,9.747444
2023-10-17T11:15:05.621Z,9.747562
2023-10-17T11:16:02.644Z,9.747539
2023-10-17T11:17:00.644Z,9.747395
2023-10-17T11:18:00.664Z,9.747416
2023-10-17T11:19:00.688Z,9.747439
2023-10-17T11:20:00.613Z,9.747438
2023-10-17T11:21:00.581Z,9.747452
2023-10-17T11:22:00.571Z,9.747463
2023-10-17T11:23:00.558Z,9.747391
2023-10-17T11:24:00.578Z,9.747475
2023-10-17T11:25:02.038Z,9.747474
2023-10-17T11:26:07.317Z,9.747359
2023-10-17T11:27:02.528Z,9.747375
2023-10-17T11:28:00.515Z,9.747366
2023-10-17T11:29:00.549Z,9.747154
2023-10-17T11:30:00.508Z,9.747366
2023-10-17T11:31:00.500Z,9.747441
2023-10-17T11:32:00.637Z,9.747350
2023-10-17T11:33:00.561Z,9.747489
2023-10-17T11:34:00.509Z,9.747490
2023-10-17T11:35:00.461Z,9.747480
2023-10-17T11:36:00.463Z,9.747345
2023-10-17T11:37:00.451Z,9.747286
2023-10-17T11:38:06.937Z,9.747307
2023-10-17T11:39:02.441Z,9.747293
2023-10-17T11:40:00.430Z,9.747324
2023-10-17T11:41:00.424Z,9.747419
2023-10-17T11:42:00.416Z,9.747356
2023-10-17T11:43:00.438Z,9.747448
2023-10-17T11:44:00.404Z,9.747489